createdAt,value
2022-08-01T00:04:46.317Z,101741.25
2022-08-01T00:09:36.016Z,101752.47
2022-08-01T00:14:32.136Z,101755.09
2022-08-01T00:19:25.130Z,101756.88
2022-08-01T00:24:15.419Z,101760.47
2022-08-01T00:29:11.573Z,101766.75
2022-08-01T00:34:16.027Z,101762.28
2022-08-01T00:39:08.216Z,101752.88
2022-08-01T00:43:58.121Z,101753.75
2022-08-01T00:48:48.056Z,101760.66
2022-08-01T00:53:50.765Z,101755.38
2022-08-01T00:58:44.828Z,101751.94
2022-08-01T01:03:57.494Z,101742.38
2022-08-01T01:08:50.958Z,101750.25
2022-08-01T01:13:50.094Z,101750.25
2022-08-01T01:18:47.696Z,101744.09
2022-08-01T01:23:57.775Z,101741.41
2022-08-01T01:29:04.990Z,101744.00
2022-08-01T01:33:56.834Z,101738.00
2022-08-01T01:38:50.764Z,101740.72
2022-08-01T01:43:41.587Z,101748.63
2022-08-01T01:48:35.681Z,101751.22
2022-08-01T01:53:26.559Z,101736.50
2022-08-01T01:58:18.079Z,101742.69
2022-08-01T02:03:11.347Z,101745.31
2022-08-01T02:08:06.209Z,101749.72
2022-08-01T02:12:57.121Z,101755.72
2022-08-01T02:17:51.078Z,101749.06
2022-08-01T02:22:46.231Z,101747.34
2022-08-01T02:27:44.268Z,101750.78
2022-08-01T02:32:38.484Z,101751.63
2022-08-01T02:37:30.574Z,101749.97
2022-08-01T02:42:22.684Z,101740.47
2022-08-01T02:47:14.912Z,101749.88
2022-08-01T02:52:08.221Z,101757.00
2022-08-01T02:57:01.424Z,101766.88
2022-08-01T03:01:55.206Z,101750.16
2022-08-01T03:06:49.617Z,101765.13
2022-08-01T03:11:42.203Z,101747.00
2022-08-01T03:16:33.684Z,101770.44
2022-08-01T03:21:25.671Z,101769.47
2022-08-01T03:26:18.330Z,101770.38
2022-08-01T03:31:08.973Z,101770.38
2022-08-01T03:35:59.516Z,101770.38
2022-08-01T03:40:53.555Z,101767.66
2022-08-01T03:45:50.415Z,101768.69
2022-08-01T03:50:43.300Z,101773.94
2022-08-01T03:55:34.167Z,101771.22
2022-08-01T04:00:24.364Z,101777.47
2022-08-01T04:05:17.175Z,101776.53
2022-08-01T04:10:07.973Z,101767.88
2022-08-01T04:14:57.757Z,101772.25
2022-08-01T04:19:48.686Z,101770.59
2022-08-01T04:24:41.071Z,101778.47
2022-08-01T04:29:33.777Z,101781.97
2022-08-01T04:34:26.816Z,101779.31
2022-08-01T04:39:18.059Z,101788.91
2022-08-01T04:44:12.880Z,101781.09
2022-08-01T04:49:03.678Z,101783.72
2022-08-01T04:53:58.168Z,101794.94
2022-08-01T04:58:48.609Z,101788.00
2022-08-01T05:03:45.122Z,101787.34
2022-08-01T05:08:34.920Z,101799.53
2022-08-01T05:13:28.428Z,101802.19
2022-08-01T05:18:18.291Z,101806.59
2022-08-01T05:23:42.456Z,101799.56
2022-08-01T05:28:35.782Z,101798.53
2022-08-01T05:33:26.752Z,101812.44
2022-08-01T05:38:16.414Z,101808.84
2022-08-01T05:43:08.921Z,101820.13
2022-08-01T05:47:58.527Z,101813.06
2022-08-01T05:52:48.234Z,101812.97
2022-08-01T05:57:39.172Z,101810.25
2022-08-01T06:02:33.285Z,101815.38
2022-08-01T06:07:23.075Z,101823.25
2022-08-01T06:12:12.953Z,101822.28
2022-08-01T06:17:02.576Z,101820.47
2022-08-01T06:21:54.771Z,101826.56
2022-08-01T06:26:44.468Z,101817.75
2022-08-01T06:31:34.988Z,101825.53
2022-08-01T06:36:24.653Z,101821.84
2022-08-01T06:41:16.842Z,101826.94
2022-08-01T06:46:06.537Z,101828.44
2022-08-01T06:51:09.192Z,101839.72
2022-08-01T06:55:58.946Z,101843.19
2022-08-01T07:00:55.933Z,101844.94
2022-08-01T07:05:47.214Z,101843.97
2022-08-01T07:10:36.942Z,101839.81
2022-08-01T07:15:27.690Z,101851.94
2022-08-01T07:20:20.083Z,101849.22
2022-08-01T07:25:11.546Z,101853.44
2022-08-01T07:30:01.411Z,101861.34
2022-08-01T07:34:51.080Z,101854.66
2022-08-01T07:39:43.246Z,101870.75
2022-08-01T07:44:32.936Z,101872.16
2022-08-01T07:49:22.876Z,101882.00
2022-08-01T07:54:12.620Z,101895.25
2022-08-01T07:59:05.192Z,101896.16
2022-08-01T08:03:54.912Z,101900.56
2022-08-01T08:08:47.065Z,101906.66
2022-08-01T08:13:36.773Z,101905.91
2022-08-01T08:18:29.064Z,101909.78
2022-08-01T08:23:42.519Z,101914.28
2022-08-01T08:28:33.339Z,101910.19
2022-08-01T08:33:23.003Z,101919.00
2022-08-01T08:38:18.139Z,101923.63
2022-08-01T08:43:09.413Z,101925.63
2022-08-01T08:48:00.545Z,101934.44
2022-08-01T08:52:50.809Z,101922.41
2022-08-01T08:57:44.675Z,101945.03
2022-08-01T09:02:34.367Z,101960.63
2022-08-01T09:07:26.518Z,101950.94
2022-08-01T09:12:20.522Z,101957.00
2022-08-01T09:17:14.084Z,101970.78
2022-08-01T09:22:07.211Z,101970.41
2022-08-01T09:26:57.599Z,101965.00
2022-08-01T09:31:48.551Z,101969.50
2022-08-01T09:37:05.699Z,101971.69
2022-08-01T09:41:59.228Z,101980.19
2022-08-01T09:46:56.490Z,101988.50
2022-08-01T09:51:59.157Z,101973.47
2022-08-01T09:56:53.001Z,101980.84
2022-08-01T10:01:50.651Z,101989.47
2022-08-01T10:06:40.976Z,101977.84
2022-08-01T10:11:36.226Z,101980.25
2022-08-01T10:16:30.851Z,101974.31
2022-08-01T10:21:56.202Z,101979.53
2022-08-01T10:26:35.865Z,101974.44
2022-08-01T10:31:34.490Z,101981.44
2022-08-01T10:36:25.987Z,101989.44
2022-08-01T10:41:18.338Z,101993.53
2022-08-01T10:46:09.492Z,101991.59
2022-08-01T10:51:17.768Z,101983.31
2022-08-01T10:56:13.160Z,101987.91
2022-08-01T11:01:37.394Z,101987.03
2022-08-01T11:06:44.487Z,101992.19
2022-08-01T11:11:37.255Z,101995.81
2022-08-01T11:16:32.372Z,101993.97
2022-08-01T11:21:58.590Z,102000.41
2022-08-01T11:26:37.391Z,101984.84
2022-08-01T11:31:37.207Z,101990.88
2022-08-01T11:36:55.974Z,101992.66
2022-08-01T11:41:41.642Z,101989.41
2022-08-01T11:47:01.240Z,101993.59
2022-08-01T11:51:50.909Z,101991.84
2022-08-01T11:56:46.470Z,101986.59
2022-08-01T12:01:38.289Z,101988.00
2022-08-01T12:06:31.567Z,101990.13
2022-08-01T12:11:22.128Z,102001.66
2022-08-01T12:16:16.295Z,102005.56
2022-08-01T12:21:07.996Z,102003.00
2022-08-01T12:25:57.845Z,102000.97
2022-08-01T12:30:51.365Z,101993.03
2022-08-01T12:35:45.956Z,101999.59
2022-08-01T12:40:40.833Z,101996.09
2022-08-01T12:45:37.786Z,101995.47
2022-08-01T12:50:31.567Z,101988.84
2022-08-01T12:55:34.154Z,101982.09
2022-08-01T13:00:26.424Z,101993.75
2022-08-01T13:05:17.248Z,101995.38
2022-08-01T13:10:08.643Z,101985.59
2022-08-01T13:15:01.186Z,101994.78
2022-08-01T13:19:56.250Z,101982.56
2022-08-01T13:24:50.535Z,101979.69
2022-08-01T13:29:42.682Z,101978.38
2022-08-01T13:34:38.990Z,101972.34
2022-08-01T13:39:41.126Z,101977.47
2022-08-01T13:44:30.789Z,101969.06
2022-08-01T13:49:23.315Z,101977.34
2022-08-01T13:54:15.680Z,101963.47
2022-08-01T13:59:05.369Z,101972.75
2022-08-01T14:03:55.583Z,101979.44
2022-08-01T14:08:46.102Z,101967.28
2022-08-01T14:13:46.749Z,101973.94
2022-08-01T14:18:36.961Z,101962.22
2022-08-01T14:23:27.810Z,101960.75
2022-08-01T14:28:17.843Z,101965.38
2022-08-01T14:33:11.909Z,101962.59
2022-08-01T14:38:01.503Z,101950.47
2022-08-01T14:42:51.189Z,101951.16
2022-08-01T14:47:41.773Z,101950.75
2022-08-01T14:52:34.675Z,101954.94
2022-08-01T14:57:24.557Z,101960.78
2022-08-01T15:02:17.937Z,101974.53
2022-08-01T15:07:07.682Z,101969.97
2022-08-01T15:12:11.453Z,101969.69
2022-08-01T15:17:01.185Z,101979.03
2022-08-01T15:21:50.815Z,101970.47
2022-08-01T15:26:40.661Z,101971.00
2022-08-01T15:31:32.894Z,101966.22
2022-08-01T15:36:25.710Z,101969.56
2022-08-01T15:41:16.539Z,101964.91
2022-08-01T15:46:08.063Z,101948.16
2022-08-01T15:51:02.106Z,101955.59
2022-08-01T15:56:01.998Z,101948.59
2022-08-01T16:00:51.781Z,101948.66
2022-08-01T16:05:44.110Z,101957.22
2022-08-01T16:10:37.288Z,101939.63
2022-08-01T16:15:31.283Z,101959.69
2022-08-01T16:20:26.733Z,101961.56
2022-08-01T16:25:17.635Z,101960.63
2022-08-01T16:30:11.404Z,101955.34
2022-08-01T16:35:01.248Z,101950.03
2022-08-01T16:39:51.425Z,101945.69
2022-08-01T16:44:41.576Z,101954.56
2022-08-01T16:49:34.366Z,101949.41
2022-08-01T16:54:26.010Z,101946.16
2022-08-01T16:59:16.319Z,101942.19
2022-08-01T17:04:06.028Z,101947.31
2022-08-01T17:08:58.566Z,101948.94
2022-08-01T17:13:48.960Z,101940.00
2022-08-01T17:18:39.092Z,101942.19
2022-08-01T17:23:28.830Z,101941.31
2022-08-01T17:28:23.129Z,101935.13
2022-08-01T17:33:12.999Z,101938.75
2022-08-01T17:38:05.818Z,101949.00
2022-08-01T17:42:57.754Z,101948.34
2022-08-01T17:47:51.143Z,101956.59
2022-08-01T17:52:46.999Z,101952.47
2022-08-01T17:57:39.532Z,101949.84
2022-08-01T18:02:31.857Z,101952.56
2022-08-01T18:08:00.404Z,101953.41
2022-08-01T18:12:35.656Z,101959.63
2022-08-01T18:17:27.122Z,101957.78
2022-08-01T18:22:32.911Z,101958.91
2022-08-01T18:28:22.676Z,101950.50
2022-08-01T18:32:38.520Z,101952.75
2022-08-01T18:37:29.339Z,101946.69
2022-08-01T18:42:29.469Z,101960.94
2022-08-01T18:47:19.353Z,101960.16
2022-08-01T18:52:09.010Z,101960.41
2022-08-01T18:56:58.827Z,101959.03
2022-08-01T19:01:51.813Z,101958.44
2022-08-01T19:06:42.272Z,101966.59
2022-08-01T19:11:36.728Z,101966.78
2022-08-01T19:16:35.202Z,101975.88
2022-08-01T19:21:44.934Z,101976.25
2022-08-01T19:26:40.756Z,101981.94
2022-08-01T19:31:37.405Z,101985.81
2022-08-01T19:36:31.629Z,101985.22
2022-08-01T19:41:26.485Z,101982.84
2022-08-01T19:46:18.485Z,101989.38
2022-08-01T19:51:09.953Z,101986.97
2022-08-01T19:56:09.051Z,101982.13
2022-08-01T20:01:03.295Z,101991.16
2022-08-01T20:05:56.401Z,101983.38
2022-08-01T20:10:54.952Z,101989.88
2022-08-01T20:15:59.223Z,101985.69
2022-08-01T20:20:51.605Z,101983.34
2022-08-01T20:25:43.678Z,101990.53
2022-08-01T20:30:35.433Z,101983.63
2022-08-01T20:35:52.111Z,101989.88
2022-08-01T20:40:38.950Z,101985.59
2022-08-01T20:45:31.346Z,101980.41
2022-08-01T20:50:54.174Z,101977.91
2022-08-01T20:55:57.265Z,101978.81
2022-08-01T21:00:57.116Z,101985.94
2022-08-01T21:05:55.898Z,101985.25
2022-08-01T21:10:58.384Z,101986.25
2022-08-01T21:16:07.475Z,101988.13
2022-08-01T21:21:07.753Z,101982.00
2022-08-01T21:26:03.562Z,101975.97
2022-08-01T21:30:59.580Z,101979.66
2022-08-01T21:35:52.399Z,101980.72
2022-08-01T21:40:42.166Z,101972.97
2022-08-01T21:45:34.475Z,101972.97
2022-08-01T21:50:24.909Z,101955.72
2022-08-01T21:55:35.236Z,101971.53
2022-08-01T22:00:26.390Z,101959.44
2022-08-01T22:05:19.859Z,101973.47
2022-08-01T22:10:16.539Z,101971.78
2022-08-01T22:15:08.419Z,101969.28
2022-08-01T22:19:58.764Z,101963.28
2022-08-01T22:24:53.332Z,101959.91
2022-08-01T22:29:43.249Z,101956.50
2022-08-01T22:34:33.845Z,101960.88
2022-08-01T22:39:24.447Z,101960.28
2022-08-01T22:44:17.954Z,101962.94
2022-08-01T22:49:28.458Z,101959.53
2022-08-01T22:54:23.528Z,101951.78
2022-08-01T22:59:19.164Z,101961.47
2022-08-01T23:04:14.900Z,101949.25
2022-08-01T23:09:06.156Z,101940.63
2022-08-01T23:13:56.518Z,101931.09
2022-08-01T23:18:49.496Z,101940.84
2022-08-01T23:23:40.803Z,101934.75
2022-08-01T23:28:31.204Z,101940.88
2022-08-01T23:33:20.914Z,101936.50
2022-08-01T23:38:15.847Z,101928.75
2022-08-01T23:43:14.621Z,101919.94
2022-08-01T23:48:08.513Z,101919.19
2022-08-01T23:52:58.316Z,101913.03
2022-08-01T23:57:51.784Z,101915.69
